sensor_id;sensor_type;location;lat;lon;timestamp;P1;durP1;ratioP1;P2;durP2;ratioP2
21798;SDS011;24973;47.178;15.316;2023-09-18T00:01:48;7.43;;;6.73;;
21798;SDS011;24973;47.178;15.316;2023-09-18T00:04:37;7.57;;;6.77;;
21798;SDS011;24973;47.178;15.316;2023-09-18T00:07:27;7.40;;;6.67;;
21798;SDS011;24973;47.178;15.316;2023-09-18T00:10:16;9.67;;;7.97;;
21798;SDS011;24973;47.178;15.316;2023-09-18T00:13:06;8.33;;;7.40;;
21798;SDS011;24973;47.178;15.316;2023-09-18T00:15:55;12.17;;;8.43;;
21798;SDS011;24973;47.178;15.316;2023-09-18T00:18:46;8.00;;;7.13;;
21798;SDS011;24973;47.178;15.316;2023-09-18T00:21:35;10.07;;;7.97;;
21798;SDS011;24973;47.178;15.316;2023-09-18T00:24:26;9.30;;;7.67;;
21798;SDS011;24973;47.178;15.316;2023-09-18T00:27:15;11.10;;;8.67;;
21798;SDS011;24973;47.178;15.316;2023-09-18T00:30:04;10.37;;;8.20;;
21798;SDS011;24973;47.178;15.316;2023-09-18T00:32:54;11.30;;;8.03;;
21798;SDS011;24973;47.178;15.316;2023-09-18T00:35:44;8.67;;;7.87;;
21798;SDS011;24973;47.178;15.316;2023-09-18T00:38:34;13.93;;;7.73;;
21798;SDS011;24973;47.178;15.316;2023-09-18T00:41:24;9.50;;;8.20;;
21798;SDS011;24973;47.178;15.316;2023-09-18T00:44:13;8.77;;;7.87;;
21798;SDS011;24973;47.178;15.316;2023-09-18T00:47:02;8.97;;;7.63;;
21798;SDS011;24973;47.178;15.316;2023-09-18T00:49:52;8.90;;;8.00;;
21798;SDS011;24973;47.178;15.316;2023-09-18T00:52:41;9.07;;;6.83;;
21798;SDS011;24973;47.178;15.316;2023-09-18T00:55:31;7.73;;;7.00;;
21798;SDS011;24973;47.178;15.316;2023-09-18T00:58:21;7.70;;;6.90;;
21798;SDS011;24973;47.178;15.316;2023-09-18T01:01:11;7.77;;;6.97;;
21798;SDS011;24973;47.178;15.316;2023-09-18T01:04:03;8.07;;;7.03;;
21798;SDS011;24973;47.178;15.316;2023-09-18T01:06:52;8.87;;;7.97;;
21798;SDS011;24973;47.178;15.316;2023-09-18T01:09:43;9.57;;;8.57;;
21798;SDS011;24973;47.178;15.316;2023-09-18T01:12:33;10.13;;;8.17;;
21798;SDS011;24973;47.178;15.316;2023-09-18T01:15:32;9.83;;;7.77;;
21798;SDS011;24973;47.178;15.316;2023-09-18T01:18:28;9.40;;;8.10;;
21798;SDS011;24973;47.178;15.316;2023-09-18T01:21:18;9.37;;;8.40;;
21798;SDS011;24973;47.178;15.316;2023-09-18T01:24:09;8.27;;;7.40;;
21798;SDS011;24973;47.178;15.316;2023-09-18T01:26:58;8.07;;;7.27;;
21798;SDS011;24973;47.178;15.316;2023-09-18T01:29:47;8.33;;;7.40;;
21798;SDS011;24973;47.178;15.316;2023-09-18T01:32:37;8.13;;;6.93;;
21798;SDS011;24973;47.178;15.316;2023-09-18T01:35:27;10.73;;;7.67;;
21798;SDS011;24973;47.178;15.316;2023-09-18T01:38:16;7.63;;;6.83;;
21798;SDS011;24973;47.178;15.316;2023-09-18T01:41:07;10.27;;;6.77;;
21798;SDS011;24973;47.178;15.316;2023-09-18T01:43:56;8.47;;;7.50;;
21798;SDS011;24973;47.178;15.316;2023-09-18T01:46:45;10.50;;;7.40;;
21798;SDS011;24973;47.178;15.316;2023-09-18T01:49:36;12.70;;;7.20;;
21798;SDS011;24973;47.178;15.316;2023-09-18T01:52:26;8.97;;;7.57;;
21798;SDS011;24973;47.178;15.316;2023-09-18T01:55:15;9.67;;;8.67;;
21798;SDS011;24973;47.178;15.316;2023-09-18T01:58:05;11.07;;;7.60;;
21798;SDS011;24973;47.178;15.316;2023-09-18T02:00:56;8.87;;;6.87;;
21798;SDS011;24973;47.178;15.316;2023-09-18T02:03:47;7.53;;;6.83;;
21798;SDS011;24973;47.178;15.316;2023-09-18T02:06:37;8.50;;;7.40;;
21798;SDS011;24973;47.178;15.316;2023-09-18T02:09:26;9.57;;;8.23;;
21798;SDS011;24973;47.178;15.316;2023-09-18T02:12:15;8.63;;;7.53;;
21798;SDS011;24973;47.178;15.316;2023-09-18T02:15:06;14.80;;;9.23;;
21798;SDS011;24973;47.178;15.316;2023-09-18T02:17:57;9.37;;;8.40;;
21798;SDS011;24973;47.178;15.316;2023-09-18T02:20:46;10.87;;;8.77;;
21798;SDS011;24973;47.178;15.316;2023-09-18T02:23:36;9.70;;;8.67;;
21798;SDS011;24973;47.178;15.316;2023-09-18T02:26:25;9.97;;;7.47;;
21798;SDS011;24973;47.178;15.316;2023-09-18T02:29:14;8.30;;;7.10;;
21798;SDS011;24973;47.178;15.316;2023-09-18T02:32:04;11.47;;;7.70;;
21798;SDS011;24973;47.178;15.316;2023-09-18T02:34:53;8.67;;;7.77;;
21798;SDS011;24973;47.178;15.316;2023-09-18T02:37:42;8.43;;;6.73;;
21798;SDS011;24973;47.178;15.316;2023-09-18T02:40:32;7.17;;;6.47;;
21798;SDS011;24973;47.178;15.316;2023-09-18T02:43:20;7.90;;;6.90;;
21798;SDS011;24973;47.178;15.316;2023-09-18T02:46:10;9.57;;;8.00;;
21798;SDS011;24973;47.178;15.316;2023-09-18T02:49:00;8.40;;;7.60;;
21798;SDS011;24973;47.178;15.316;2023-09-18T02:51:49;8.90;;;7.93;;
21798;SDS011;24973;47.178;15.316;2023-09-18T02:54:38;13.10;;;7.83;;
21798;SDS011;24973;47.178;15.316;2023-09-18T02:57:27;8.17;;;7.37;;
21798;SDS011;24973;47.178;15.316;2023-09-18T03:00:16;11.53;;;7.43;;
21798;SDS011;24973;47.178;15.316;2023-09-18T03:03:12;7.70;;;6.57;;
21798;SDS011;24973;47.178;15.316;2023-09-18T03:06:03;11.67;;;7.17;;
21798;SDS011;24973;47.178;15.316;2023-09-18T03:08:53;12.17;;;7.63;;
21798;SDS011;24973;47.178;15.316;2023-09-18T03:11:42;7.93;;;7.23;;
21798;SDS011;24973;47.178;15.316;2023-09-18T03:14:31;9.83;;;6.97;;
21798;SDS011;24973;47.178;15.316;2023-09-18T03:17:21;7.70;;;6.93;;
21798;SDS011;24973;47.178;15.316;2023-09-18T03:20:10;8.50;;;7.30;;
21798;SDS011;24973;47.178;15.316;2023-09-18T03:23:01;10.27;;;7.27;;
21798;SDS011;24973;47.178;15.316;2023-09-18T03:25:50;8.77;;;6.77;;
21798;SDS011;24973;47.178;15.316;2023-09-18T03:28:39;8.83;;;7.70;;
21798;SDS011;24973;47.178;15.316;2023-09-18T03:31:28;12.37;;;7.13;;
21798;SDS011;24973;47.178;15.316;2023-09-18T03:34:17;7.53;;;6.83;;
21798;SDS011;24973;47.178;15.316;2023-09-18T03:37:06;8.30;;;7.40;;
21798;SDS011;24973;47.178;15.316;2023-09-18T03:39:57;11.97;;;8.37;;
21798;SDS011;24973;47.178;15.316;2023-09-18T03:42:46;9.13;;;8.13;;
21798;SDS011;24973;47.178;15.316;2023-09-18T03:45:35;7.23;;;6.53;;
21798;SDS011;24973;47.178;15.316;2023-09-18T03:48:24;7.93;;;7.13;;
21798;SDS011;24973;47.178;15.316;2023-09-18T03:51:13;10.63;;;6.93;;
21798;SDS011;24973;47.178;15.316;2023-09-18T03:54:03;14.50;;;7.97;;
21798;SDS011;24973;47.178;15.316;2023-09-18T03:56:53;8.73;;;7.33;;
21798;SDS011;24973;47.178;15.316;2023-09-18T03:59:42;9.97;;;8.33;;
21798;SDS011;24973;47.178;15.316;2023-09-18T04:02:31;10.97;;;8.40;;
21798;SDS011;24973;47.178;15.316;2023-09-18T04:05:20;8.83;;;7.00;;
21798;SDS011;24973;47.178;15.316;2023-09-18T04:08:09;10.03;;;7.40;;
21798;SDS011;24973;47.178;15.316;2023-09-18T04:11:00;8.90;;;7.60;;
21798;SDS011;24973;47.178;15.316;2023-09-18T04:13:52;10.07;;;7.53;;
21798;SDS011;24973;47.178;15.316;2023-09-18T04:16:41;13.67;;;7.10;;
21798;SDS011;24973;47.178;15.316;2023-09-18T04:19:31;9.20;;;7.53;;
21798;SDS011;24973;47.178;15.316;2023-09-18T04:22:20;8.30;;;7.43;;
21798;SDS011;24973;47.178;15.316;2023-09-18T04:25:09;10.53;;;7.67;;
21798;SDS011;24973;47.178;15.316;2023-09-18T04:27:58;10.00;;;7.77;;
21798;SDS011;24973;47.178;15.316;2023-09-18T04:30:48;8.33;;;7.30;;
21798;SDS011;24973;47.178;15.316;2023-09-18T04:33:37;8.53;;;7.30;;
21798;SDS011;24973;47.178;15.316;2023-09-18T04:36:26;10.30;;;8.13;;
21798;SDS011;24973;47.178;15.316;2023-09-18T04:39:15;11.83;;;7.20;;
21798;SDS011;24973;47.178;15.316;2023-09-18T04:42:06;11.87;;;8.43;;
21798;SDS011;24973;47.178;15.316;2023-09-18T04:44:55;8.10;;;7.30;;
21798;SDS011;24973;47.178;15.316;2023-09-18T04:47:46;8.03;;;7.00;;
21798;SDS011;24973;47.178;15.316;2023-09-18T04:50:35;8.00;;;7.13;;
21798;SDS011;24973;47.178;15.316;2023-09-18T04:53:24;11.20;;;8.07;;
21798;SDS011;24973;47.178;15.316;2023-09-18T04:56:13;8.67;;;7.77;;
21798;SDS011;24973;47.178;15.316;2023-09-18T04:59:02;11.63;;;8.20;;
21798;SDS011;24973;47.178;15.316;2023-09-18T05:01:51;10.57;;;8.20;;
21798;SDS011;24973;47.178;15.316;2023-09-18T05:04:41;9.63;;;8.63;;
21798;SDS011;24973;47.178;15.316;2023-09-18T05:07:31;13.90;;;7.33;;
21798;SDS011;24973;47.178;15.316;2023-09-18T05:10:20;7.20;;;6.50;;
21798;SDS011;24973;47.178;15.316;2023-09-18T05:13:09;7.40;;;6.63;;
21798;SDS011;24973;47.178;15.316;2023-09-18T05:15:58;7.47;;;6.47;;
21798;SDS011;24973;47.178;15.316;2023-09-18T05:18:47;8.57;;;7.50;;
21798;SDS011;24973;47.178;15.316;2023-09-18T05:21:38;11.57;;;8.57;;
21798;SDS011;24973;47.178;15.316;2023-09-18T05:24:28;9.57;;;8.40;;
21798;SDS011;24973;47.178;15.316;2023-09-18T05:27:17;8.90;;;8.03;;
21798;SDS011;24973;47.178;15.316;2023-09-18T05:30:07;11.63;;;9.57;;
21798;SDS011;24973;47.178;15.316;2023-09-18T05:32:57;13.03;;;8.07;;
21798;SDS011;24973;47.178;15.316;2023-09-18T05:35:51;11.43;;;8.47;;
21798;SDS011;24973;47.178;15.316;2023-09-18T05:38:41;9.27;;;8.30;;
21798;SDS011;24973;47.178;15.316;2023-09-18T05:41:30;9.20;;;8.27;;
21798;SDS011;24973;47.178;15.316;2023-09-18T05:44:19;9.80;;;8.17;;
21798;SDS011;24973;47.178;15.316;2023-09-18T05:47:09;8.20;;;7.37;;
21798;SDS011;24973;47.178;15.316;2023-09-18T05:49:58;8.33;;;7.53;;
21798;SDS011;24973;47.178;15.316;2023-09-18T05:52:47;11.60;;;9.47;;
21798;SDS011;24973;47.178;15.316;2023-09-18T05:55:38;21.03;;;12.97;;
21798;SDS011;24973;47.178;15.316;2023-09-18T05:58:27;27.90;;;15.77;;
21798;SDS011;24973;47.178;15.316;2023-09-18T06:01:18;19.63;;;13.30;;
21798;SDS011;24973;47.178;15.316;2023-09-18T06:04:07;17.60;;;13.20;;
21798;SDS011;24973;47.178;15.316;2023-09-18T06:06:57;8.63;;;7.73;;
21798;SDS011;24973;47.178;15.316;2023-09-18T06:09:46;10.77;;;8.87;;
21798;SDS011;24973;47.178;15.316;2023-09-18T06:12:38;18.43;;;11.33;;
21798;SDS011;24973;47.178;15.316;2023-09-18T06:15:27;15.50;;;9.87;;
21798;SDS011;24973;47.178;15.316;2023-09-18T06:18:16;10.93;;;8.93;;
21798;SDS011;24973;47.178;15.316;2023-09-18T06:21:06;15.17;;;9.47;;
21798;SDS011;24973;47.178;15.316;2023-09-18T06:23:55;17.00;;;10.87;;
21798;SDS011;24973;47.178;15.316;2023-09-18T06:26:44;22.23;;;9.70;;
21798;SDS011;24973;47.178;15.316;2023-09-18T06:29:34;9.97;;;8.87;;
21798;SDS011;24973;47.178;15.316;2023-09-18T06:32:24;10.20;;;7.73;;
21798;SDS011;24973;47.178;15.316;2023-09-18T06:35:13;12.00;;;8.53;;
21798;SDS011;24973;47.178;15.316;2023-09-18T06:38:02;9.73;;;8.60;;
21798;SDS011;24973;47.178;15.316;2023-09-18T06:40:53;9.97;;;8.43;;
21798;SDS011;24973;47.178;15.316;2023-09-18T06:43:42;15.67;;;8.63;;
21798;SDS011;24973;47.178;15.316;2023-09-18T06:46:32;9.43;;;8.43;;
21798;SDS011;24973;47.178;15.316;2023-09-18T06:49:21;9.53;;;8.53;;
21798;SDS011;24973;47.178;15.316;2023-09-18T06:52:10;10.63;;;9.47;;
21798;SDS011;24973;47.178;15.316;2023-09-18T06:54:59;10.43;;;8.83;;
21798;SDS011;24973;47.178;15.316;2023-09-18T06:57:49;11.83;;;8.90;;
21798;SDS011;24973;47.178;15.316;2023-09-18T07:00:38;10.33;;;8.67;;
21798;SDS011;24973;47.178;15.316;2023-09-18T07:03:29;15.67;;;8.63;;
21798;SDS011;24973;47.178;15.316;2023-09-18T07:06:19;9.40;;;8.07;;
21798;SDS011;24973;47.178;15.316;2023-09-18T07:09:08;9.37;;;8.47;;
21798;SDS011;24973;47.178;15.316;2023-09-18T07:11:59;11.73;;;7.63;;
21798;SDS011;24973;47.178;15.316;2023-09-18T07:14:47;13.77;;;9.10;;
21798;SDS011;24973;47.178;15.316;2023-09-18T07:17:37;17.87;;;8.53;;
21798;SDS011;24973;47.178;15.316;2023-09-18T07:20:27;12.47;;;8.57;;
21798;SDS011;24973;47.178;15.316;2023-09-18T07:23:16;10.07;;;8.13;;
21798;SDS011;24973;47.178;15.316;2023-09-18T07:26:05;9.80;;;7.70;;
21798;SDS011;24973;47.178;15.316;2023-09-18T07:28:55;8.77;;;7.70;;
21798;SDS011;24973;47.178;15.316;2023-09-18T07:31:45;11.27;;;7.37;;
21798;SDS011;24973;47.178;15.316;2023-09-18T07:34:34;7.97;;;6.93;;
21798;SDS011;24973;47.178;15.316;2023-09-18T07:37:25;10.60;;;6.97;;
21798;SDS011;24973;47.178;15.316;2023-09-18T07:40:14;8.30;;;6.40;;
21798;SDS011;24973;47.178;15.316;2023-09-18T07:43:03;8.33;;;7.13;;
21798;SDS011;24973;47.178;15.316;2023-09-18T07:45:52;7.77;;;6.20;;
21798;SDS011;24973;47.178;15.316;2023-09-18T07:48:43;9.40;;;6.50;;
21798;SDS011;24973;47.178;15.316;2023-09-18T07:51:32;8.97;;;6.80;;
21798;SDS011;24973;47.178;15.316;2023-09-18T07:54:22;8.67;;;6.63;;
21798;SDS011;24973;47.178;15.316;2023-09-18T07:57:11;7.53;;;6.37;;
21798;SDS011;24973;47.178;15.316;2023-09-18T08:00:02;7.43;;;6.73;;
21798;SDS011;24973;47.178;15.316;2023-09-18T08:02:54;9.30;;;6.53;;
21798;SDS011;24973;47.178;15.316;2023-09-18T08:05:49;8.27;;;6.80;;
21798;SDS011;24973;47.178;15.316;2023-09-18T08:08:40;8.47;;;7.30;;
21798;SDS011;24973;47.178;15.316;2023-09-18T08:11:30;11.40;;;6.27;;
21798;SDS011;24973;47.178;15.316;2023-09-18T08:14:19;10.20;;;7.50;;
21798;SDS011;24973;47.178;15.316;2023-09-18T08:17:08;12.93;;;6.60;;
21798;SDS011;24973;47.178;15.316;2023-09-18T08:19:58;7.70;;;5.80;;
21798;SDS011;24973;47.178;15.316;2023-09-18T08:22:47;7.47;;;6.67;;
21798;SDS011;24973;47.178;15.316;2023-09-18T08:25:37;6.57;;;5.83;;
21798;SDS011;24973;47.178;15.316;2023-09-18T08:28:28;8.07;;;6.70;;
21798;SDS011;24973;47.178;15.316;2023-09-18T08:31:17;14.17;;;6.63;;
21798;SDS011;24973;47.178;15.316;2023-09-18T08:34:06;7.63;;;6.03;;
21798;SDS011;24973;47.178;15.316;2023-09-18T08:36:55;8.63;;;5.60;;
21798;SDS011;24973;47.178;15.316;2023-09-18T08:39:44;8.03;;;6.37;;
21798;SDS011;24973;47.178;15.316;2023-09-18T08:42:33;6.50;;;5.80;;
21798;SDS011;24973;47.178;15.316;2023-09-18T08:45:25;6.93;;;5.90;;
21798;SDS011;24973;47.178;15.316;2023-09-18T08:48:23;6.87;;;6.17;;
21798;SDS011;24973;47.178;15.316;2023-09-18T08:51:12;6.93;;;6.33;;
21798;SDS011;24973;47.178;15.316;2023-09-18T08:54:02;11.53;;;6.90;;
21798;SDS011;24973;47.178;15.316;2023-09-18T08:56:52;6.40;;;5.70;;
21798;SDS011;24973;47.178;15.316;2023-09-18T08:59:42;8.50;;;6.20;;
21798;SDS011;24973;47.178;15.316;2023-09-18T09:02:34;7.10;;;6.47;;
21798;SDS011;24973;47.178;15.316;2023-09-18T09:05:23;6.57;;;6.00;;
21798;SDS011;24973;47.178;15.316;2023-09-18T09:08:12;6.50;;;5.90;;
21798;SDS011;24973;47.178;15.316;2023-09-18T09:11:02;6.70;;;6.10;;
21798;SDS011;24973;47.178;15.316;2023-09-18T09:14:01;8.10;;;5.70;;
21798;SDS011;24973;47.178;15.316;2023-09-18T09:16:58;6.63;;;5.33;;
21798;SDS011;24973;47.178;15.316;2023-09-18T09:19:49;6.73;;;5.90;;
21798;SDS011;24973;47.178;15.316;2023-09-18T09:22:38;6.57;;;5.97;;
21798;SDS011;24973;47.178;15.316;2023-09-18T09:25:27;8.50;;;6.67;;
21798;SDS011;24973;47.178;15.316;2023-09-18T09:28:28;6.77;;;6.13;;
21798;SDS011;24973;47.178;15.316;2023-09-18T09:31:24;6.97;;;6.37;;
21798;SDS011;24973;47.178;15.316;2023-09-18T09:34:23;7.27;;;6.33;;
21798;SDS011;24973;47.178;15.316;2023-09-18T09:37:15;10.80;;;6.37;;
21798;SDS011;24973;47.178;15.316;2023-09-18T09:40:04;7.43;;;6.30;;
21798;SDS011;24973;47.178;15.316;2023-09-18T09:42:57;6.80;;;6.10;;
21798;SDS011;24973;47.178;15.316;2023-09-18T09:45:49;8.70;;;6.40;;
21798;SDS011;24973;47.178;15.316;2023-09-18T09:48:39;7.63;;;6.20;;
21798;SDS011;24973;47.178;15.316;2023-09-18T09:51:28;8.53;;;6.57;;
21798;SDS011;24973;47.178;15.316;2023-09-18T09:54:20;7.80;;;6.63;;
21798;SDS011;24973;47.178;15.316;2023-09-18T09:57:22;7.63;;;6.53;;
21798;SDS011;24973;47.178;15.316;2023-09-18T10:00:12;7.63;;;6.37;;
21798;SDS011;24973;47.178;15.316;2023-09-18T10:03:13;6.90;;;5.53;;
21798;SDS011;24973;47.178;15.316;2023-09-18T10:06:03;7.57;;;6.97;;
21798;SDS011;24973;47.178;15.316;2023-09-18T10:08:53;6.77;;;6.13;;
21798;SDS011;24973;47.178;15.316;2023-09-18T10:11:45;9.90;;;6.77;;
21798;SDS011;24973;47.178;15.316;2023-09-18T10:14:37;6.33;;;5.70;;
21798;SDS011;24973;47.178;15.316;2023-09-18T10:17:33;7.17;;;5.90;;
21798;SDS011;24973;47.178;15.316;2023-09-18T10:20:22;7.23;;;6.53;;
21798;SDS011;24973;47.178;15.316;2023-09-18T10:23:15;7.10;;;6.30;;
21798;SDS011;24973;47.178;15.316;2023-09-18T10:26:14;7.27;;;5.87;;
21798;SDS011;24973;47.178;15.316;2023-09-18T10:29:13;9.23;;;5.50;;
21798;SDS011;24973;47.178;15.316;2023-09-18T10:32:05;9.70;;;5.70;;
21798;SDS011;24973;47.178;15.316;2023-09-18T10:34:55;6.90;;;6.20;;
21798;SDS011;24973;47.178;15.316;2023-09-18T10:37:45;6.07;;;5.53;;
21798;SDS011;24973;47.178;15.316;2023-09-18T10:40:34;6.13;;;5.53;;
21798;SDS011;24973;47.178;15.316;2023-09-18T10:43:24;7.10;;;5.63;;
21798;SDS011;24973;47.178;15.316;2023-09-18T10:46:14;7.37;;;5.80;;
21798;SDS011;24973;47.178;15.316;2023-09-18T10:49:03;7.93;;;6.23;;
21798;SDS011;24973;47.178;15.316;2023-09-18T10:51:53;8.70;;;7.30;;
21798;SDS011;24973;47.178;15.316;2023-09-18T10:54:42;6.73;;;4.93;;
21798;SDS011;24973;47.178;15.316;2023-09-18T10:57:33;9.02;;;5.60;;
21798;SDS011;24973;47.178;15.316;2023-09-18T11:00:24;5.88;;;5.28;;
21798;SDS011;24973;47.178;15.316;2023-09-18T11:03:16;5.43;;;4.93;;
21798;SDS011;24973;47.178;15.316;2023-09-18T11:06:06;5.68;;;5.18;;
21798;SDS011;24973;47.178;15.316;2023-09-18T11:08:59;10.48;;;7.35;;
21798;SDS011;24973;47.178;15.316;2023-09-18T11:11:51;6.05;;;5.32;;
21798;SDS011;24973;47.178;15.316;2023-09-18T11:14:44;7.47;;;5.72;;
21798;SDS011;24973;47.178;15.316;2023-09-18T11:17:36;6.75;;;5.53;;
21798;SDS011;24973;47.178;15.316;2023-09-18T11:20:28;8.85;;;6.07;;
21798;SDS011;24973;47.178;15.316;2023-09-18T11:23:17;6.28;;;5.47;;
21798;SDS011;24973;47.178;15.316;2023-09-18T11:26:07;6.50;;;5.90;;
21798;SDS011;24973;47.178;15.316;2023-09-18T11:28:58;9.15;;;6.20;;
21798;SDS011;24973;47.178;15.316;2023-09-18T11:31:51;7.93;;;6.05;;
21798;SDS011;24973;47.178;15.316;2023-09-18T11:34:42;6.90;;;5.88;;
21798;SDS011;24973;47.178;15.316;2023-09-18T11:37:32;6.18;;;5.30;;
21798;SDS011;24973;47.178;15.316;2023-09-18T11:40:28;6.47;;;5.75;;
21798;SDS011;24973;47.178;15.316;2023-09-18T11:43:25;6.40;;;5.57;;
21798;SDS011;24973;47.178;15.316;2023-09-18T11:46:18;7.28;;;5.97;;
21798;SDS011;24973;47.178;15.316;2023-09-18T11:49:07;7.05;;;5.65;;
21798;SDS011;24973;47.178;15.316;2023-09-18T11:51:58;9.67;;;6.40;;
21798;SDS011;24973;47.178;15.316;2023-09-18T11:54:48;7.13;;;6.38;;
21798;SDS011;24973;47.178;15.316;2023-09-18T11:57:37;7.05;;;6.30;;
21798;SDS011;24973;47.178;15.316;2023-09-18T12:00:29;8.23;;;6.30;;
21798;SDS011;24973;47.178;15.316;2023-09-18T12:03:19;6.38;;;5.38;;
21798;SDS011;24973;47.178;15.316;2023-09-18T12:06:12;7.90;;;6.43;;
21798;SDS011;24973;47.178;15.316;2023-09-18T12:09:02;6.75;;;5.78;;
21798;SDS011;24973;47.178;15.316;2023-09-18T12:11:55;6.07;;;5.25;;
21798;SDS011;24973;47.178;15.316;2023-09-18T12:14:45;6.35;;;5.75;;
21798;SDS011;24973;47.178;15.316;2023-09-18T12:17:34;15.47;;;7.27;;
21798;SDS011;24973;47.178;15.316;2023-09-18T12:20:23;6.83;;;6.13;;
21798;SDS011;24973;47.178;15.316;2023-09-18T12:23:12;6.63;;;5.77;;
21798;SDS011;24973;47.178;15.316;2023-09-18T12:26:01;5.87;;;5.37;;
21798;SDS011;24973;47.178;15.316;2023-09-18T12:28:52;9.77;;;6.80;;
21798;SDS011;24973;47.178;15.316;2023-09-18T12:31:41;11.07;;;5.90;;
21798;SDS011;24973;47.178;15.316;2023-09-18T12:34:32;7.93;;;6.23;;
21798;SDS011;24973;47.178;15.316;2023-09-18T12:37:21;7.33;;;6.00;;
21798;SDS011;24973;47.178;15.316;2023-09-18T12:40:20;7.77;;;5.80;;
21798;SDS011;24973;47.178;15.316;2023-09-18T12:43:10;6.40;;;5.80;;
21798;SDS011;24973;47.178;15.316;2023-09-18T12:46:00;7.53;;;6.80;;
21798;SDS011;24973;47.178;15.316;2023-09-18T12:48:51;8.73;;;6.97;;
21798;SDS011;24973;47.178;15.316;2023-09-18T12:51:40;7.50;;;6.73;;
21798;SDS011;24973;47.178;15.316;2023-09-18T12:54:38;7.63;;;5.93;;
21798;SDS011;24973;47.178;15.316;2023-09-18T12:57:28;10.20;;;7.47;;
21798;SDS011;24973;47.178;15.316;2023-09-18T13:00:17;8.50;;;7.60;;
21798;SDS011;24973;47.178;15.316;2023-09-18T13:03:11;9.77;;;6.50;;
21798;SDS011;24973;47.178;15.316;2023-09-18T13:06:07;7.60;;;6.90;;
21798;SDS011;24973;47.178;15.316;2023-09-18T13:12:04;9.33;;;7.40;;
21798;SDS011;24973;47.178;15.316;2023-09-18T13:14:57;10.43;;;7.67;;
21798;SDS011;24973;47.178;15.316;2023-09-18T13:17:49;13.63;;;8.93;;
21798;SDS011;24973;47.178;15.316;2023-09-18T13:20:40;9.20;;;6.70;;
21798;SDS011;24973;47.178;15.316;2023-09-18T13:23:29;8.67;;;6.03;;
21798;SDS011;24973;47.178;15.316;2023-09-18T13:26:19;14.03;;;8.10;;
21798;SDS011;24973;47.178;15.316;2023-09-18T13:29:08;7.33;;;6.70;;
21798;SDS011;24973;47.178;15.316;2023-09-18T13:31:57;11.77;;;5.80;;
21798;SDS011;24973;47.178;15.316;2023-09-18T13:34:47;8.13;;;6.63;;
21798;SDS011;24973;47.178;15.316;2023-09-18T13:37:37;7.10;;;6.40;;
21798;SDS011;24973;47.178;15.316;2023-09-18T13:40:27;7.25;;;5.65;;
21798;SDS011;24973;47.178;15.316;2023-09-18T13:43:16;6.85;;;5.95;;
21798;SDS011;24973;47.178;15.316;2023-09-18T13:46:08;6.20;;;5.55;;
21798;SDS011;24973;47.178;15.316;2023-09-18T13:48:57;6.47;;;5.85;;
21798;SDS011;24973;47.178;15.316;2023-09-18T13:51:46;7.55;;;6.38;;
21798;SDS011;24973;47.178;15.316;2023-09-18T13:54:38;6.87;;;5.97;;
21798;SDS011;24973;47.178;15.316;2023-09-18T13:57:28;6.40;;;5.80;;
21798;SDS011;24973;47.178;15.316;2023-09-18T14:00:17;6.87;;;6.27;;
21798;SDS011;24973;47.178;15.316;2023-09-18T14:03:07;8.63;;;6.23;;
21798;SDS011;24973;47.178;15.316;2023-09-18T14:05:57;6.97;;;6.30;;
21798;SDS011;24973;47.178;15.316;2023-09-18T14:08:46;6.93;;;6.33;;
21798;SDS011;24973;47.178;15.316;2023-09-18T14:11:37;7.77;;;6.30;;
21798;SDS011;24973;47.178;15.316;2023-09-18T14:14:26;12.17;;;6.63;;
21798;SDS011;24973;47.178;15.316;2023-09-18T14:17:15;13.23;;;6.87;;
21798;SDS011;24973;47.178;15.316;2023-09-18T14:20:08;9.53;;;6.90;;
21798;SDS011;24973;47.178;15.316;2023-09-18T14:22:57;8.80;;;6.23;;
21798;SDS011;24973;47.178;15.316;2023-09-18T14:25:46;6.50;;;5.90;;
21798;SDS011;24973;47.178;15.316;2023-09-18T14:28:37;8.43;;;6.33;;
21798;SDS011;24973;47.178;15.316;2023-09-18T14:31:26;7.37;;;6.40;;
21798;SDS011;24973;47.178;15.316;2023-09-18T14:34:15;9.77;;;6.13;;
21798;SDS011;24973;47.178;15.316;2023-09-18T14:37:05;7.20;;;5.97;;
21798;SDS011;24973;47.178;15.316;2023-09-18T14:39:54;9.13;;;7.13;;
21798;SDS011;24973;47.178;15.316;2023-09-18T14:42:43;9.70;;;6.37;;
21798;SDS011;24973;47.178;15.316;2023-09-18T14:45:33;7.07;;;6.37;;
21798;SDS011;24973;47.178;15.316;2023-09-18T14:48:24;6.90;;;6.03;;
21798;SDS011;24973;47.178;15.316;2023-09-18T14:51:15;6.23;;;5.63;;
21798;SDS011;24973;47.178;15.316;2023-09-18T14:54:05;11.27;;;8.03;;
21798;SDS011;24973;47.178;15.316;2023-09-18T14:56:54;7.30;;;6.43;;
21798;SDS011;24973;47.178;15.316;2023-09-18T14:59:44;8.40;;;7.03;;
21798;SDS011;24973;47.178;15.316;2023-09-18T15:02:35;8.63;;;7.83;;
21798;SDS011;24973;47.178;15.316;2023-09-18T15:05:25;7.40;;;6.70;;
21798;SDS011;24973;47.178;15.316;2023-09-18T15:08:14;7.73;;;6.80;;
21798;SDS011;24973;47.178;15.316;2023-09-18T15:11:10;8.30;;;5.93;;
21798;SDS011;24973;47.178;15.316;2023-09-18T15:14:03;8.63;;;6.63;;
21798;SDS011;24973;47.178;15.316;2023-09-18T15:16:52;6.90;;;6.20;;
21798;SDS011;24973;47.178;15.316;2023-09-18T15:19:43;8.03;;;6.90;;
21798;SDS011;24973;47.178;15.316;2023-09-18T15:22:35;8.03;;;7.10;;
21798;SDS011;24973;47.178;15.316;2023-09-18T15:25:24;9.90;;;7.27;;
21798;SDS011;24973;47.178;15.316;2023-09-18T15:28:13;17.23;;;7.50;;
21798;SDS011;24973;47.178;15.316;2023-09-18T15:31:03;8.37;;;7.33;;
21798;SDS011;24973;47.178;15.316;2023-09-18T15:33:52;10.70;;;7.97;;
21798;SDS011;24973;47.178;15.316;2023-09-18T15:36:43;14.20;;;7.70;;
21798;SDS011;24973;47.178;15.316;2023-09-18T15:39:32;9.77;;;7.83;;
21798;SDS011;24973;47.178;15.316;2023-09-18T15:42:22;8.93;;;8.03;;
21798;SDS011;24973;47.178;15.316;2023-09-18T15:45:11;12.20;;;7.83;;
21798;SDS011;24973;47.178;15.316;2023-09-18T15:48:00;8.00;;;7.20;;
21798;SDS011;24973;47.178;15.316;2023-09-18T15:50:50;13.53;;;7.90;;
21798;SDS011;24973;47.178;15.316;2023-09-18T15:53:41;8.70;;;7.23;;
21798;SDS011;24973;47.178;15.316;2023-09-18T15:56:30;13.60;;;8.43;;
21798;SDS011;24973;47.178;15.316;2023-09-18T15:59:20;11.53;;;8.60;;
21798;SDS011;24973;47.178;15.316;2023-09-18T16:02:09;8.23;;;7.43;;
21798;SDS011;24973;47.178;15.316;2023-09-18T16:04:58;10.03;;;7.80;;
21798;SDS011;24973;47.178;15.316;2023-09-18T16:07:47;8.67;;;7.77;;
21798;SDS011;24973;47.178;15.316;2023-09-18T16:10:39;10.87;;;7.97;;
21798;SDS011;24973;47.178;15.316;2023-09-18T16:13:29;8.97;;;6.80;;
21798;SDS011;24973;47.178;15.316;2023-09-18T16:16:18;13.07;;;8.20;;
21798;SDS011;24973;47.178;15.316;2023-09-18T16:19:08;13.13;;;8.77;;
21798;SDS011;24973;47.178;15.316;2023-09-18T16:21:57;11.03;;;8.07;;
21798;SDS011;24973;47.178;15.316;2023-09-18T16:24:46;9.77;;;7.73;;
21798;SDS011;24973;47.178;15.316;2023-09-18T16:27:37;11.77;;;8.13;;
21798;SDS011;24973;47.178;15.316;2023-09-18T16:30:26;9.10;;;7.90;;
21798;SDS011;24973;47.178;15.316;2023-09-18T16:33:15;13.63;;;8.00;;
21798;SDS011;24973;47.178;15.316;2023-09-18T16:36:05;9.73;;;8.43;;
21798;SDS011;24973;47.178;15.316;2023-09-18T16:38:54;8.63;;;7.73;;
21798;SDS011;24973;47.178;15.316;2023-09-18T16:41:43;8.80;;;7.90;;
21798;SDS011;24973;47.178;15.316;2023-09-18T16:44:33;9.77;;;8.77;;
21798;SDS011;24973;47.178;15.316;2023-09-18T16:47:25;9.33;;;7.50;;
21798;SDS011;24973;47.178;15.316;2023-09-18T16:50:18;10.80;;;8.13;;